Time;durP1;ratioP1;P1;durP2;ratioP2;P2;SDS_P1;SDS_P2;PMS_P1;PMS_P2;Temp;Humidity;BMP_temperature;BMP_pressure;BME280_temperature;BME280_humidity;BME280_pressure;Samples;Min_cycle;Max_cycle;Signal;HPM_P1;HPM_P2
2023/10/12 00:03:07;0.00;0.00;0.62;0.00;0.00;0.62;8.60;3.90;;;27.70;31.20;;;;;;2260805;61;20388;-64
2023/10/12 00:05:52;0.00;0.00;0.62;0.00;0.00;0.62;9.20;3.83;;;27.70;31.30;;;;;;2261051;61;20881;-65
2023/10/12 00:08:37;0.00;0.00;0.62;0.00;0.00;0.62;5.50;3.60;;;27.70;31.20;;;;;;2260746;61;20416;-65
2023/10/12 00:11:21;0.00;0.00;0.62;0.00;0.00;0.62;4.90;3.53;;;27.70;31.20;;;;;;2260815;61;20437;-64
2023/10/12 00:14:07;0.00;0.00;0.62;0.00;0.00;0.62;5.20;4.00;;;27.70;31.20;;;;;;2261027;61;20359;-65
2023/10/12 00:16:52;0.00;0.00;0.62;0.00;0.00;0.62;4.80;4.10;;;27.70;31.20;;;;;;2260912;61;20365;-65
2023/10/12 00:19:38;0.00;0.00;0.62;0.00;0.00;0.62;4.70;3.90;;;27.70;31.20;;;;;;2260626;61;20664;-65
2023/10/12 00:22:23;0.00;0.00;0.62;0.00;0.00;0.62;5.87;4.00;;;27.70;31.20;;;;;;2261141;61;20373;-65
2023/10/12 00:25:08;0.00;0.00;0.62;0.00;0.00;0.62;5.13;3.30;;;27.70;31.20;;;;;;2261003;61;20916;-64
2023/10/12 00:27:54;0.00;0.00;0.62;0.00;0.00;0.62;5.17;3.93;;;27.60;31.20;;;;;;2260601;61;20415;-65
2023/10/12 00:30:41;0.00;0.00;0.62;0.00;0.00;0.62;5.43;4.10;;;27.70;31.20;;;;;;2260400;61;20813;-65
2023/10/12 00:33:26;0.00;0.00;0.62;0.00;0.00;0.62;5.47;3.67;;;27.70;31.20;;;;;;2260682;61;20388;-65
2023/10/12 00:36:21;0.00;0.00;0.62;0.00;0.00;0.62;6.40;4.57;;;27.70;31.20;;;;;;2260921;61;20392;-65
2023/10/12 00:39:10;0.00;0.00;0.62;0.00;0.00;0.62;7.73;4.43;;;27.60;31.10;;;;;;2260577;61;20361;-65
2023/10/12 00:41:55;0.00;0.00;0.62;0.00;0.00;0.62;4.70;3.83;;;27.60;31.10;;;;;;2260435;61;20388;-65
2023/10/12 00:44:41;0.00;0.00;0.62;0.00;0.00;0.62;7.80;4.00;;;27.60;31.10;;;;;;2260627;61;20364;-65
2023/10/12 00:47:43;0.00;0.00;0.62;0.00;0.00;0.62;5.07;3.63;;;27.60;31.10;;;;;;2260694;61;20407;-64
2023/10/12 00:50:29;0.00;0.00;0.62;0.00;0.00;0.62;6.10;4.00;;;27.60;31.10;;;;;;2260484;61;20415;-66
2023/10/12 00:56:06;0.00;0.00;0.62;0.00;0.00;0.62;7.00;4.10;;;27.60;31.20;;;;;;2260393;61;20377;-66
2023/10/12 00:58:51;0.00;0.00;0.62;0.00;0.00;0.62;5.07;4.13;;;27.60;31.20;;;;;;2260605;61;20693;-66
2023/10/12 01:01:35;0.00;0.00;0.62;0.00;0.00;0.62;5.27;4.40;;;27.60;31.20;;;;;;2260864;61;20396;-66
2023/10/12 01:04:22;0.00;0.00;0.62;0.00;0.00;0.62;5.50;4.37;;;27.60;31.30;;;;;;2260793;61;20400;-64
2023/10/12 01:07:11;0.00;0.00;0.62;0.00;0.00;0.62;5.20;4.10;;;27.60;31.30;;;;;;2260622;61;20805;-63
2023/10/12 01:10:03;0.00;0.00;0.62;0.00;0.00;0.62;4.73;3.70;;;27.60;31.30;;;;;;2260428;61;20365;-65
2023/10/12 01:12:47;0.00;0.00;0.62;0.00;0.00;0.62;5.63;3.77;;;27.60;31.30;;;;;;2261002;61;20393;-63
2023/10/12 01:15:32;0.00;0.00;0.62;0.00;0.00;0.62;4.73;4.00;;;27.60;31.30;;;;;;2263552;61;20447;-63
2023/10/12 01:18:28;0.00;0.00;0.62;0.00;0.00;0.62;5.00;3.63;;;27.60;31.40;;;;;;2260603;61;21080;-64
2023/10/12 01:21:13;0.00;0.00;0.62;0.00;0.00;0.62;4.90;4.33;;;27.60;31.40;;;;;;2259517;61;20785;-63
2023/10/12 01:24:04;0.00;0.00;0.62;0.00;0.00;0.62;4.43;3.93;;;27.60;31.40;;;;;;2260958;61;20361;-66
2023/10/12 01:26:53;0.00;0.00;0.62;0.00;0.00;0.62;7.00;4.07;;;27.60;31.40;;;;;;2261134;61;20403;-64
2023/10/12 01:29:37;0.00;0.00;0.62;0.00;0.00;0.62;5.53;4.27;;;27.60;31.40;;;;;;2260484;61;20397;-64
2023/10/12 01:32:27;0.00;0.00;0.62;0.00;0.00;0.62;5.30;3.80;;;27.60;31.40;;;;;;2260671;61;20924;-64
2023/10/12 01:35:14;0.00;0.00;0.62;0.00;0.00;0.62;5.50;4.20;;;27.60;31.40;;;;;;2260814;61;20357;-64
2023/10/12 01:38:01;0.00;0.00;0.62;0.00;0.00;0.62;6.30;4.03;;;27.60;31.40;;;;;;2260501;61;20831;-63
2023/10/12 01:40:55;0.00;0.00;0.62;0.00;0.00;0.62;5.20;3.77;;;27.60;31.40;;;;;;2260689;61;20467;-63
2023/10/12 01:43:43;0.00;0.00;0.62;0.00;0.00;0.62;4.90;4.23;;;27.60;31.40;;;;;;2260479;61;20373;-64
2023/10/12 01:46:28;0.00;0.00;0.62;0.00;0.00;0.62;7.23;5.37;;;27.60;31.40;;;;;;2260999;61;20433;-64
2023/10/12 01:49:13;0.00;0.00;0.62;0.00;0.00;0.62;4.30;3.90;;;27.60;31.40;;;;;;2260276;61;20803;-63
2023/10/12 01:51:58;0.00;0.00;0.62;0.00;0.00;0.62;5.40;3.97;;;27.60;31.50;;;;;;2260620;61;20412;-64
2023/10/12 01:54:44;0.00;0.00;0.62;0.00;0.00;0.62;4.30;3.83;;;27.60;31.50;;;;;;2260517;61;20585;-64
2023/10/12 01:57:36;0.00;0.00;0.62;0.00;0.00;0.62;5.43;4.47;;;27.60;31.50;;;;;;2260902;61;20492;-64
2023/10/12 02:00:27;0.00;0.00;0.62;0.00;0.00;0.62;4.13;3.73;;;27.60;31.60;;;;;;2257362;61;20483;-66
2023/10/12 02:03:20;0.00;0.00;0.62;0.00;0.00;0.62;3.97;3.50;;;27.60;31.60;;;;;;2259964;61;20432;-63
2023/10/12 02:06:13;0.00;0.00;0.62;0.00;0.00;0.62;5.60;4.33;;;27.60;31.60;;;;;;2260377;61;20715;-64
2023/10/12 02:09:10;0.00;0.00;0.62;0.00;0.00;0.62;6.23;4.60;;;27.60;31.60;;;;;;2259469;61;20361;-63
2023/10/12 02:11:55;0.00;0.00;0.62;0.00;0.00;0.62;6.70;3.73;;;27.60;31.60;;;;;;2260488;61;20475;-64
2023/10/12 02:14:41;0.00;0.00;0.62;0.00;0.00;0.62;7.37;4.10;;;27.70;32.30;;;;;;2260541;61;20369;-66
2023/10/12 02:17:26;0.00;0.00;0.62;0.00;0.00;0.62;5.00;4.10;;;27.70;31.60;;;;;;2260184;61;20407;-66
2023/10/12 02:20:12;0.00;0.00;0.62;0.00;0.00;0.62;5.53;4.30;;;27.60;31.60;;;;;;2262596;61;20360;-64
2023/10/12 02:22:57;0.00;0.00;0.62;0.00;0.00;0.62;6.20;4.30;;;27.70;31.60;;;;;;2260440;61;20392;-64
2023/10/12 02:25:50;0.00;0.00;0.62;0.00;0.00;0.62;4.50;3.53;;;27.70;31.70;;;;;;2260597;61;20929;-64
2023/10/12 02:28:37;0.00;0.00;0.62;0.00;0.00;0.62;5.73;4.13;;;27.70;31.70;;;;;;2259726;61;20815;-64
2023/10/12 02:31:28;0.00;0.00;0.62;0.00;0.00;0.62;6.13;3.60;;;27.70;31.70;;;;;;2260386;61;20975;-64
2023/10/12 02:34:16;0.00;0.00;0.62;0.00;0.00;0.62;4.50;3.43;;;27.70;31.70;;;;;;2260648;61;20369;-67
2023/10/12 02:39:47;0.00;0.00;0.62;0.00;0.00;0.62;5.20;3.47;;;27.70;31.70;;;;;;2259727;61;20455;-64
2023/10/12 02:42:41;0.00;0.00;0.62;0.00;0.00;0.62;4.83;3.87;;;27.70;31.60;;;;;;2260574;61;20432;-65
2023/10/12 02:45:29;0.00;0.00;0.62;0.00;0.00;0.62;7.40;4.20;;;27.70;31.60;;;;;;2260629;61;20403;-67
2023/10/12 02:48:23;0.00;0.00;0.62;0.00;0.00;0.62;6.77;3.43;;;27.70;31.50;;;;;;2260170;61;20427;-64
2023/10/12 02:51:08;0.00;0.00;0.62;0.00;0.00;0.62;4.70;3.50;;;27.70;31.50;;;;;;2259915;61;20976;-66
2023/10/12 02:53:54;0.00;0.00;0.62;0.00;0.00;0.62;5.20;3.97;;;27.70;31.50;;;;;;2260345;61;20424;-63
2023/10/12 02:56:42;0.00;0.00;0.62;0.00;0.00;0.62;4.20;3.80;;;27.70;31.50;;;;;;2260674;61;20406;-66
2023/10/12 02:59:27;0.00;0.00;0.62;0.00;0.00;0.62;5.13;4.30;;;27.70;31.50;;;;;;2259704;61;20703;-64
2023/10/12 03:02:21;0.00;0.00;0.62;0.00;0.00;0.62;7.07;3.67;;;27.70;31.50;;;;;;2259718;61;20385;-67
2023/10/12 03:05:08;0.00;0.00;0.62;0.00;0.00;0.62;4.73;3.70;;;27.70;31.50;;;;;;2260421;61;20401;-63
2023/10/12 03:07:53;0.00;0.00;0.62;0.00;0.00;0.62;4.67;3.63;;;27.70;31.50;;;;;;2260229;61;20507;-63
2023/10/12 03:10:46;0.00;0.00;0.62;0.00;0.00;0.62;5.77;3.90;;;27.70;31.50;;;;;;2260140;61;20385;-64
2023/10/12 03:13:35;0.00;0.00;0.62;0.00;0.00;0.62;6.30;3.63;;;27.70;31.50;;;;;;2260455;61;20361;-63
2023/10/12 03:19:23;0.00;0.00;0.62;0.00;0.00;0.62;4.47;3.60;;;27.70;31.50;;;;;;2259791;61;20353;-63
2023/10/12 03:25:19;0.00;0.00;0.62;0.00;0.00;0.62;4.70;3.80;;;27.70;31.50;;;;;;2259819;61;20364;-63
2023/10/12 03:28:11;0.00;0.00;0.62;0.00;0.00;0.62;4.27;3.47;;;27.70;31.60;;;;;;2259604;61;20360;-64
2023/10/12 03:31:11;0.00;0.00;0.62;0.00;0.00;0.62;6.27;3.77;;;27.70;31.60;;;;;;2259989;61;20416;-63
2023/10/12 03:33:56;0.00;0.00;0.62;0.00;0.00;0.62;4.10;3.30;;;27.60;31.60;;;;;;2260189;61;20364;-63
2023/10/12 03:36:45;0.00;0.00;0.62;0.00;0.00;0.62;4.90;3.83;;;27.60;31.60;;;;;;2260503;61;20422;-64
2023/10/12 03:39:43;0.00;0.00;0.62;0.00;0.00;0.62;5.77;3.93;;;27.60;31.60;;;;;;2259397;61;20431;-64
2023/10/12 03:45:25;0.00;0.00;0.62;0.00;0.00;0.62;4.50;3.47;;;27.60;31.60;;;;;;2260105;61;20361;-64
2023/10/12 03:48:26;0.00;0.00;0.62;0.00;0.00;0.62;8.20;4.03;;;27.60;31.70;;;;;;2259994;61;20435;-69
2023/10/12 03:54:11;0.00;0.00;0.62;0.00;0.00;0.62;4.90;4.13;;;27.60;31.70;;;;;;2260116;61;20887;-65
2023/10/12 03:57:19;0.00;0.00;0.62;0.00;0.00;0.62;5.60;4.37;;;27.60;31.80;;;;;;2260303;61;20357;-62
2023/10/12 04:02:58;0.00;0.00;0.62;0.00;0.00;0.62;8.63;4.80;;;27.60;31.80;;;;;;2260092;61;20397;-64
2023/10/12 04:14:31;0.00;0.00;0.62;0.00;0.00;0.62;5.40;4.73;;;27.50;31.70;;;;;;2259821;61;20360;-64
2023/10/12 04:20:17;0.00;0.00;0.62;0.00;0.00;0.62;7.37;5.10;;;27.50;31.80;;;;;;2259997;61;20432;-64
2023/10/12 04:26:27;0.00;0.00;0.62;0.00;0.00;0.62;7.13;5.73;;;27.50;31.80;;;;;;2260372;61;20385;-63
2023/10/12 04:32:09;0.00;0.00;0.62;0.00;0.00;0.62;6.03;4.83;;;27.50;31.70;;;;;;2260664;61;20392;-64
2023/10/12 04:34:54;0.00;0.00;0.62;0.00;0.00;0.62;8.87;5.50;;;27.50;31.70;;;;;;2260984;61;20776;-63
2023/10/12 04:37:39;0.00;0.00;0.62;0.00;0.00;0.62;7.37;5.43;;;27.50;31.80;;;;;;2260703;61;20383;-65
2023/10/12 04:40:36;0.00;0.00;0.62;0.00;0.00;0.62;8.80;5.97;;;27.50;31.70;;;;;;2260938;61;20364;-64
2023/10/12 04:43:24;0.00;0.00;0.62;0.00;0.00;0.62;8.40;5.57;;;27.50;31.70;;;;;;2260761;61;20360;-63
2023/10/12 04:58:31;0.00;0.00;0.62;0.00;0.00;0.62;7.40;5.63;;;27.40;31.70;;;;;;2243302;61;20401;-60
2023/10/12 05:01:22;0.00;0.00;0.62;0.00;0.00;0.62;7.00;5.87;;;27.40;31.70;;;;;;2260695;61;20979;-58
2023/10/12 05:04:09;0.00;0.00;0.62;0.00;0.00;0.62;6.63;5.70;;;27.40;31.70;;;;;;2260810;61;20365;-62
2023/10/12 05:07:27;0.00;0.00;0.62;0.00;0.00;0.62;9.50;6.33;;;27.40;31.70;;;;;;2260546;61;20373;-62
2023/10/12 05:10:14;0.00;0.00;0.62;0.00;0.00;0.62;7.63;5.27;;;27.40;31.70;;;;;;2260398;61;20365;-64
2023/10/12 05:13:05;0.00;0.00;0.62;0.00;0.00;0.62;9.70;6.40;;;27.40;31.70;;;;;;2260426;61;20520;-67
2023/10/12 05:16:03;0.00;0.00;0.62;0.00;0.00;0.62;9.87;6.77;;;27.40;31.70;;;;;;2260193;61;20865;-63
2023/10/12 05:18:48;0.00;0.00;0.62;0.00;0.00;0.62;6.63;5.80;;;27.40;31.70;;;;;;2260308;61;20356;-63
2023/10/12 05:21:34;0.00;0.00;0.62;0.00;0.00;0.62;7.40;6.27;;;27.40;31.70;;;;;;2260506;61;20428;-63
2023/10/12 05:24:22;0.00;0.00;0.62;0.00;0.00;0.62;6.87;5.97;;;27.40;31.70;;;;;;2260155;61;20415;-62
2023/10/12 05:27:19;0.00;0.00;0.62;0.00;0.00;0.62;7.13;5.43;;;27.40;31.70;;;;;;2260777;61;20365;-60
2023/10/12 05:30:16;0.00;0.00;0.62;0.00;0.00;0.62;6.90;6.20;;;27.40;31.70;;;;;;2259896;61;20435;-65
2023/10/12 05:33:05;0.00;0.00;0.62;0.00;0.00;0.62;7.60;6.20;;;27.40;31.70;;;;;;2260568;61;20392;-61
2023/10/12 05:35:52;0.00;0.00;0.62;0.00;0.00;0.62;7.40;6.23;;;27.40;31.70;;;;;;2260317;61;20362;-63
2023/10/12 05:38:39;0.00;0.00;0.62;0.00;0.00;0.62;6.63;5.67;;;27.40;31.70;;;;;;2259827;61;20373;-59
2023/10/12 05:44:23;0.00;0.00;0.62;0.00;0.00;0.62;8.40;5.70;;;27.40;31.70;;;;;;2260772;61;20373;-68
2023/10/12 05:47:11;0.00;0.00;0.62;0.00;0.00;0.62;6.73;6.00;;;27.40;31.70;;;;;;2260565;61;20900;-59
2023/10/12 05:49:59;0.00;0.00;0.62;0.00;0.00;0.62;4.57;3.97;;;27.40;31.70;;;;;;2260210;61;20397;-64
2023/10/12 05:52:45;0.00;0.00;0.62;0.00;0.00;0.62;6.67;4.03;;;27.40;31.70;;;;;;2260255;61;20380;-62
2023/10/12 05:55:33;0.00;0.00;0.62;0.00;0.00;0.62;5.20;4.63;;;27.30;31.70;;;;;;2260160;61;20361;-62
2023/10/12 05:58:18;0.00;0.00;0.62;0.00;0.00;0.62;4.97;4.47;;;27.30;31.70;;;;;;2260057;61;20412;-59
2023/10/12 06:01:08;0.00;0.00;0.62;0.00;0.00;0.62;6.30;4.20;;;27.30;31.70;;;;;;2260751;61;20404;-62
2023/10/12 06:03:56;0.00;0.00;0.62;0.00;0.00;0.62;4.50;4.00;;;27.30;31.70;;;;;;2260193;61;20353;-61
2023/10/12 06:06:42;0.00;0.00;0.62;0.00;0.00;0.62;4.80;4.00;;;27.30;31.70;;;;;;2260387;61;20357;-61
2023/10/12 06:09:35;0.00;0.00;0.62;0.00;0.00;0.62;5.17;3.20;;;27.30;31.70;;;;;;2260106;61;20846;-62
2023/10/12 06:12:24;0.00;0.00;0.62;0.00;0.00;0.62;4.90;4.40;;;27.30;31.70;;;;;;2260619;61;20825;-59
2023/10/12 06:15:10;0.00;0.00;0.62;0.00;0.00;0.62;4.77;3.50;;;27.30;31.70;;;;;;2260439;61;20391;-58
2023/10/12 06:17:55;0.00;0.00;0.62;0.00;0.00;0.62;5.00;3.80;;;27.30;31.70;;;;;;2260299;61;20421;-64
2023/10/12 06:20:45;0.00;0.00;0.62;0.00;0.00;0.62;4.47;3.67;;;27.30;31.70;;;;;;2260210;61;20385;-62
2023/10/12 06:23:31;0.00;0.00;0.62;0.00;0.00;0.62;4.63;3.83;;;27.30;31.80;;;;;;2260727;61;20365;-63
2023/10/12 06:26:28;0.00;0.00;0.62;0.00;0.00;0.62;4.20;3.43;;;27.30;31.70;;;;;;2260503;61;20469;-61
2023/10/12 06:29:25;0.00;0.00;0.62;0.00;0.00;0.62;4.90;3.57;;;27.30;31.80;;;;;;2260071;61;20360;-62
2023/10/12 06:32:17;0.00;0.00;0.62;0.00;0.00;0.62;4.30;3.60;;;27.20;31.70;;;;;;2260376;61;20446;-59
2023/10/12 06:35:13;0.00;0.00;0.62;0.00;0.00;0.62;4.03;3.33;;;27.20;31.70;;;;;;2260466;61;20369;-57
2023/10/12 06:41:00;0.00;0.00;0.62;0.00;0.00;0.62;5.23;3.50;;;27.20;31.70;;;;;;2260487;61;20768;-61
2023/10/12 06:46:43;0.00;0.00;0.62;0.00;0.00;0.62;4.87;3.40;;;27.20;31.70;;;;;;2260476;61;20401;-64
2023/10/12 06:49:29;0.00;0.00;0.62;0.00;0.00;0.62;3.70;2.87;;;27.20;31.70;;;;;;2259924;61;20769;-60
2023/10/12 06:52:19;0.00;0.00;0.62;0.00;0.00;0.62;4.20;3.00;;;27.20;31.70;;;;;;2259784;61;20920;-60
2023/10/12 06:55:08;0.00;0.00;0.62;0.00;0.00;0.62;4.60;3.43;;;27.20;31.70;;;;;;2260456;61;20369;-61
2023/10/12 06:57:53;0.00;0.00;0.62;0.00;0.00;0.62;5.17;3.23;;;27.20;31.70;;;;;;2259934;61;20403;-66
2023/10/12 07:00:59;0.00;0.00;0.62;0.00;0.00;0.62;4.70;2.90;;;27.20;31.70;;;;;;2260236;61;20461;-63
2023/10/12 07:03:47;0.00;0.00;0.62;0.00;0.00;0.62;4.03;3.10;;;27.20;31.70;;;;;;2260238;61;20931;-59
2023/10/12 07:06:32;0.00;0.00;0.62;0.00;0.00;0.62;4.30;3.23;;;27.20;31.80;;;;;;2260190;61;20365;-61
2023/10/12 07:09:16;0.00;0.00;0.62;0.00;0.00;0.62;4.20;3.00;;;27.20;31.70;;;;;;2260028;61;20372;-63
2023/10/12 07:12:01;0.00;0.00;0.62;0.00;0.00;0.62;4.30;2.90;;;27.20;31.70;;;;;;2260105;61;20932;-62
2023/10/12 07:14:46;0.00;0.00;0.62;0.00;0.00;0.62;4.10;3.00;;;27.20;31.70;;;;;;2260415;61;20948;-59
2023/10/12 07:17:32;0.00;0.00;0.62;0.00;0.00;0.62;3.20;2.40;;;27.20;31.70;;;;;;2260161;61;20360;-61
2023/10/12 07:23:17;0.00;0.00;0.62;0.00;0.00;0.62;4.50;2.50;;;27.20;31.70;;;;;;2260271;61;20389;-58
2023/10/12 07:26:13;0.00;0.00;0.62;0.00;0.00;0.62;4.10;2.93;;;27.20;31.70;;;;;;2260375;61;20396;-62
2023/10/12 07:29:07;0.00;0.00;0.62;0.00;0.00;0.62;6.17;2.70;;;27.20;31.70;;;;;;2259464;61;20369;-65
2023/10/12 07:31:52;0.00;0.00;0.62;0.00;0.00;0.62;6.57;2.67;;;27.10;31.50;;;;;;2260328;61;20480;-65
2023/10/12 07:34:37;0.00;0.00;0.62;0.00;0.00;0.62;4.03;2.73;;;27.10;31.60;;;;;;2259895;61;20413;-65
2023/10/12 07:37:24;0.00;0.00;0.62;0.00;0.00;0.62;5.87;3.40;;;27.10;31.60;;;;;;2260374;61;20368;-65
2023/10/12 07:40:17;0.00;0.00;0.62;0.00;0.00;0.62;3.93;2.40;;;27.10;31.60;;;;;;2259944;61;20365;-66
2023/10/12 07:43:07;0.00;0.00;0.62;0.00;0.00;0.62;4.90;2.70;;;27.10;32.30;;;;;;2259676;61;20381;-65
2023/10/12 07:45:53;0.00;0.00;0.62;0.00;0.00;0.62;3.03;2.03;;;27.10;31.60;;;;;;2260245;61;20781;-65
2023/10/12 07:48:42;0.00;0.00;0.62;0.00;0.00;0.62;4.43;2.63;;;27.10;31.70;;;;;;2259963;61;20361;-65
2023/10/12 07:51:28;0.00;0.00;0.62;0.00;0.00;0.62;4.33;2.90;;;27.10;31.60;;;;;;2259917;61;20439;-65
2023/10/12 07:54:46;0.00;0.00;0.62;0.00;0.00;0.62;3.63;2.30;;;27.10;31.60;;;;;;2260161;61;20361;-65
2023/10/12 07:57:22;0.00;0.00;0.62;0.00;0.00;0.62;4.40;3.00;;;27.10;31.60;;;;;;2260083;61;20408;-65
2023/10/12 08:05:43;0.00;0.00;0.62;0.00;0.00;0.62;3.77;2.37;;;27.10;32.30;;;;;;2260792;61;20443;-65
2023/10/12 08:08:34;0.00;0.00;0.62;0.00;0.00;0.62;3.90;2.23;;;27.10;31.60;;;;;;2260523;61;20402;-65
2023/10/12 08:11:31;0.00;0.00;0.62;0.00;0.00;0.62;4.57;2.57;;;27.10;31.60;;;;;;2260913;61;20388;-65
2023/10/12 08:23:17;0.00;0.00;0.62;0.00;0.00;0.62;6.03;2.27;;;27.10;31.60;;;;;;2261046;61;20939;-65
2023/10/12 08:26:03;0.00;0.00;0.62;0.00;0.00;0.62;3.70;1.73;;;27.00;31.60;;;;;;2261011;61;20396;-65
2023/10/12 08:28:55;0.00;0.00;0.62;0.00;0.00;0.62;5.03;3.00;;;27.00;31.50;;;;;;2262976;61;20902;-65
2023/10/12 08:31:43;0.00;0.00;0.62;0.00;0.00;0.62;4.90;2.83;;;27.00;31.60;;;;;;2260433;61;20388;-65
2023/10/12 08:37:26;0.00;0.00;0.62;0.00;0.00;0.62;3.30;2.17;;;27.00;31.60;;;;;;2260975;61;20385;-64
2023/10/12 08:40:21;0.00;0.00;0.62;0.00;0.00;0.62;6.70;2.50;;;27.00;31.50;;;;;;2260663;61;20384;-64
2023/10/12 08:43:09;0.00;0.00;0.62;0.00;0.00;0.62;4.33;2.37;;;27.00;31.50;;;;;;2260614;61;20523;-65
2023/10/12 08:45:55;0.00;0.00;0.62;0.00;0.00;0.62;3.53;2.10;;;27.00;32.30;;;;;;2260805;61;20376;-70
2023/10/12 08:48:52;0.00;0.00;0.62;0.00;0.00;0.62;6.30;2.20;;;27.00;31.50;;;;;;2260122;61;20365;-66
2023/10/12 08:51:37;0.00;0.00;0.62;0.00;0.00;0.62;3.07;2.07;;;27.00;31.50;;;;;;2260805;61;20393;-66
2023/10/12 08:54:27;0.00;0.00;0.62;0.00;0.00;0.62;4.97;2.60;;;27.00;31.50;;;;;;2260770;61;20361;-64
2023/10/12 08:57:19;0.00;0.00;0.62;0.00;0.00;0.62;4.40;2.70;;;27.00;31.60;;;;;;2260827;61;20380;-65
2023/10/12 09:00:24;0.00;0.00;0.62;0.00;0.00;0.62;5.67;2.70;;;27.00;31.50;;;;;;2260579;61;20415;-65
2023/10/12 09:06:07;0.00;0.00;0.62;0.00;0.00;0.62;4.37;2.30;;;27.00;31.50;;;;;;2260717;61;20448;-65
2023/10/12 09:08:51;0.00;0.00;0.62;0.00;0.00;0.62;3.70;2.60;;;27.00;31.50;;;;;;2260351;61;20449;-63
2023/10/12 09:11:38;0.00;0.00;0.62;0.00;0.00;0.62;3.00;1.97;;;27.00;31.60;;;;;;2260341;61;20836;-65
2023/10/12 09:14:26;0.00;0.00;0.62;0.00;0.00;0.62;6.00;2.27;;;27.00;31.50;;;;;;2260648;61;20461;-64
2023/10/12 09:17:26;0.00;0.00;0.62;0.00;0.00;0.62;5.73;2.50;;;27.00;31.50;;;;;;2260955;61;20898;-65
2023/10/12 09:20:26;0.00;0.00;0.62;0.00;0.00;0.62;4.90;2.80;;;27.00;31.50;;;;;;2260573;61;20389;-64
2023/10/12 09:23:15;0.00;0.00;0.62;0.00;0.00;0.62;2.90;2.00;;;27.00;31.50;;;;;;2260629;61;20442;-65
2023/10/12 09:26:14;0.00;0.00;0.62;0.00;0.00;0.62;6.03;2.20;;;27.00;31.50;;;;;;2260552;61;20397;-65
2023/10/12 09:32:12;0.00;0.00;0.62;0.00;0.00;0.62;3.13;2.13;;;27.00;31.50;;;;;;2260771;61;20405;-66
2023/10/12 09:35:19;0.00;0.00;0.62;0.00;0.00;0.62;5.00;2.40;;;27.00;31.60;;;;;;2260275;61;20588;-65
2023/10/12 09:38:05;0.00;0.00;0.62;0.00;0.00;0.62;4.53;2.17;;;27.00;31.50;;;;;;2260222;61;20404;-64
2023/10/12 09:40:53;0.00;0.00;0.62;0.00;0.00;0.62;2.50;1.63;;;27.00;31.60;;;;;;2260442;61;20385;-65
2023/10/12 09:43:39;0.00;0.00;0.62;0.00;0.00;0.62;3.00;1.67;;;26.90;31.50;;;;;;2260634;61;20364;-65
2023/10/12 09:46:27;0.00;0.00;0.62;0.00;0.00;0.62;3.93;2.17;;;27.00;31.60;;;;;;2260907;61;20908;-68
2023/10/12 09:49:21;0.00;0.00;0.62;0.00;0.00;0.62;5.00;2.33;;;26.90;31.70;;;;;;2260124;61;20777;-70
2023/10/12 09:52:13;0.00;0.00;0.62;0.00;0.00;0.62;3.90;2.10;;;26.90;31.60;;;;;;2260554;61;20400;-64
2023/10/12 09:55:07;0.00;0.00;0.62;0.00;0.00;0.62;4.00;2.30;;;26.90;31.60;;;;;;2260012;61;20365;-65
2023/10/12 09:57:53;0.00;0.00;0.62;0.00;0.00;0.62;3.10;1.73;;;26.90;31.60;;;;;;2259887;61;20476;-65
2023/10/12 10:00:55;0.00;0.00;0.62;0.00;0.00;0.62;3.00;1.90;;;26.90;31.60;;;;;;2260545;61;20367;-68
2023/10/12 10:03:47;0.00;0.00;0.62;0.00;0.00;0.62;3.87;2.00;;;26.90;31.60;;;;;;2260362;61;20374;-62
2023/10/12 10:06:37;0.00;0.00;0.62;0.00;0.00;0.62;4.70;2.30;;;26.90;31.60;;;;;;2260216;61;20823;-65
2023/10/12 10:09:37;0.00;0.00;0.62;0.00;0.00;0.62;5.67;2.17;;;26.90;31.60;;;;;;2256235;61;20454;-61
2023/10/12 10:12:27;0.00;0.00;0.62;0.00;0.00;0.62;3.07;2.03;;;26.90;31.60;;;;;;2256500;61;20444;-61
2023/10/12 10:15:20;0.00;0.00;0.62;0.00;0.00;0.62;4.27;2.10;;;27.00;31.70;;;;;;2256513;61;20381;-62
2023/10/12 10:18:14;0.00;0.00;0.62;0.00;0.00;0.62;3.57;2.10;;;26.90;31.60;;;;;;2256038;61;20598;-60
2023/10/12 10:21:05;0.00;0.00;0.62;0.00;0.00;0.62;2.10;1.47;;;26.90;31.60;;;;;;2256665;61;20365;-61
2023/10/12 10:23:52;0.00;0.00;0.62;0.00;0.00;0.62;3.10;1.67;;;26.90;31.60;;;;;;2256505;61;20933;-61
2023/10/12 10:26:37;0.00;0.00;0.62;0.00;0.00;0.62;3.80;2.10;;;26.90;31.60;;;;;;2256466;61;20398;-60
2023/10/12 10:29:38;0.00;0.00;0.62;0.00;0.00;0.62;2.43;1.57;;;26.90;31.60;;;;;;2256300;61;20397;-62
2023/10/12 10:32:29;0.00;0.00;0.62;0.00;0.00;0.62;3.43;1.73;;;26.90;31.70;;;;;;2256320;61;20393;-63
2023/10/12 10:35:18;0.00;0.00;0.62;0.00;0.00;0.62;2.83;1.43;;;26.90;31.60;;;;;;2256816;61;20433;-63
2023/10/12 10:38:07;0.00;0.00;0.62;0.00;0.00;0.62;4.13;2.23;;;26.90;31.60;;;;;;2258778;61;20512;-61
2023/10/12 10:41:05;0.00;0.00;0.62;0.00;0.00;0.62;2.97;1.93;;;26.90;31.60;;;;;;2256571;61;20753;-59
2023/10/12 10:43:53;0.00;0.00;0.62;0.00;0.00;0.62;3.30;1.87;;;26.90;31.60;;;;;;2256729;61;20369;-63
2023/10/12 10:46:44;0.00;0.00;0.62;0.00;0.00;0.62;2.80;1.43;;;26.90;31.60;;;;;;2256530;61;20371;-62
2023/10/12 10:49:31;0.00;0.00;0.62;0.00;0.00;0.62;2.77;1.63;;;26.90;31.60;;;;;;2256029;61;20416;-63
2023/10/12 10:52:20;0.00;0.00;0.62;0.00;0.00;0.62;3.37;1.70;;;26.90;31.60;;;;;;2256510;61;20456;-64
2023/10/12 10:55:10;0.00;0.00;0.62;0.00;0.00;0.62;3.00;1.80;;;26.90;31.60;;;;;;2256317;61;20501;-64
2023/10/12 10:57:56;0.00;0.00;0.62;0.00;0.00;0.62;4.53;1.70;;;26.90;31.70;;;;;;2256226;61;20973;-64
2023/10/12 11:00:45;0.00;0.00;0.62;0.00;0.00;0.62;5.93;2.27;;;26.90;31.60;;;;;;2256488;61;20436;-64
2023/10/12 11:03:34;0.00;0.00;0.62;0.00;0.00;0.62;3.83;1.70;;;26.90;31.70;;;;;;2255786;61;20413;-63
2023/10/12 11:06:22;0.00;0.00;0.62;0.00;0.00;0.62;3.07;1.70;;;26.90;31.70;;;;;;2256304;61;20423;-62
2023/10/12 11:09:07;0.00;0.00;0.62;0.00;0.00;0.62;4.17;1.77;;;26.90;31.70;;;;;;2259626;61;20373;-64
2023/10/12 11:11:58;0.00;0.00;0.62;0.00;0.00;0.62;4.23;1.97;;;26.90;31.70;;;;;;2260609;61;20932;-61
2023/10/12 11:14:52;0.00;0.00;0.62;0.00;0.00;0.62;2.70;1.43;;;26.90;31.70;;;;;;2260269;61;20449;-64
2023/10/12 11:17:55;0.00;0.00;0.62;0.00;0.00;0.62;2.90;1.40;;;26.90;31.70;;;;;;2260317;61;20412;-61
2023/10/12 11:20:49;0.00;0.00;0.62;0.00;0.00;0.62;4.83;1.67;;;26.90;31.70;;;;;;2260269;61;20367;-61
2023/10/12 11:23:34;0.00;0.00;0.62;0.00;0.00;0.62;4.77;1.90;;;26.90;31.70;;;;;;2260829;61;20373;-59
2023/10/12 11:26:19;0.00;0.00;0.62;0.00;0.00;0.62;4.10;1.90;;;26.90;31.70;;;;;;2260491;61;20361;-59
2023/10/12 11:29:06;0.00;0.00;0.62;0.00;0.00;0.62;2.50;1.83;;;26.90;31.70;;;;;;2260406;61;20365;-63
2023/10/12 11:32:11;0.00;0.00;0.62;0.00;0.00;0.62;3.63;2.00;;;26.90;31.70;;;;;;2260183;61;20405;-63
2023/10/12 11:34:59;0.00;0.00;0.62;0.00;0.00;0.62;3.53;2.03;;;26.90;31.70;;;;;;2260338;61;20900;-61
2023/10/12 11:37:45;0.00;0.00;0.62;0.00;0.00;0.62;3.53;2.37;;;26.90;31.70;;;;;;2261104;61;20361;-61
2023/10/12 11:40:30;0.00;0.00;0.62;0.00;0.00;0.62;4.30;2.20;;;26.90;31.70;;;;;;2261067;61;20366;-61
2023/10/12 11:43:15;0.00;0.00;0.62;0.00;0.00;0.62;6.10;2.70;;;26.90;31.70;;;;;;2261225;61;20380;-63
2023/10/12 11:46:01;0.00;0.00;0.62;0.00;0.00;0.62;5.70;2.50;;;26.90;31.70;;;;;;2261086;61;20941;-64
2023/10/12 11:49:01;0.00;0.00;0.62;0.00;0.00;0.62;5.40;2.33;;;26.90;31.70;;;;;;2260670;61;20844;-60
2023/10/12 11:51:57;0.00;0.00;0.62;0.00;0.00;0.62;4.87;2.40;;;26.90;31.70;;;;;;2260981;61;20396;-63
2023/10/12 11:54:44;0.00;0.00;0.62;0.00;0.00;0.62;4.50;2.57;;;26.90;31.70;;;;;;2261104;61;20380;-62
2023/10/12 11:57:29;0.00;0.00;0.62;0.00;0.00;0.62;3.77;2.20;;;26.90;31.80;;;;;;2261179;61;20415;-61
2023/10/12 12:00:31;0.00;0.00;0.62;0.00;0.00;0.62;4.43;2.90;;;26.90;31.70;;;;;;2260972;61;20420;-61
2023/10/12 12:03:17;0.00;0.00;0.62;0.00;0.00;0.62;4.53;2.37;;;26.90;31.80;;;;;;2261142;61;20958;-60
2023/10/12 12:06:02;0.00;0.00;0.62;0.00;0.00;0.62;3.60;2.50;;;26.90;31.80;;;;;;2261150;61;20457;-60
2023/10/12 12:08:47;0.00;0.00;0.62;0.00;0.00;0.62;4.53;3.07;;;26.90;31.80;;;;;;2260334;61;20423;-61
2023/10/12 12:11:37;0.00;0.00;0.62;0.00;0.00;0.62;3.37;2.33;;;26.90;31.80;;;;;;2260934;61;20435;-62
2023/10/12 12:14:22;0.00;0.00;0.62;0.00;0.00;0.62;5.93;2.73;;;26.90;31.80;;;;;;2260485;61;20412;-61
2023/10/12 12:17:07;0.00;0.00;0.62;0.00;0.00;0.62;2.87;2.33;;;26.90;31.80;;;;;;2260813;61;20361;-61
2023/10/12 12:19:51;0.00;0.00;0.62;0.00;0.00;0.62;3.50;2.40;;;26.90;31.80;;;;;;2260920;61;20364;-61
2023/10/12 12:22:42;0.00;0.00;0.62;0.00;0.00;0.62;3.70;2.40;;;26.90;31.80;;;;;;2261030;61;20924;-64
2023/10/12 12:25:31;0.00;0.00;0.62;0.00;0.00;0.62;3.70;2.70;;;26.90;31.80;;;;;;2260988;61;20357;-61
2023/10/12 12:28:21;0.00;0.00;0.62;0.00;0.00;0.62;4.87;2.50;;;26.90;31.80;;;;;;2260780;61;20792;-61
2023/10/12 12:31:10;0.00;0.00;0.62;0.00;0.00;0.62;2.73;1.97;;;26.90;31.80;;;;;;2260728;61;20427;-62
2023/10/12 12:33:54;0.00;0.00;0.62;0.00;0.00;0.62;4.33;2.30;;;26.90;31.80;;;;;;2261174;61;20404;-63
2023/10/12 12:36:41;0.00;0.00;0.62;0.00;0.00;0.62;3.60;2.27;;;26.90;31.80;;;;;;2260794;61;20484;-62